Main page
METAR-TAF:

METAR-TAF

Airports :

Khartoum International Airport

Khartoum, Sudan

latitude: 15-36N, longitude: 032-33E, elevation: 382 m

Current weather observation

The report was made 17 minutes ago, at 00:30 UTC
Wind 10 kt from the North
Temperature 20°C
Humidity 15%
Pressure 1014 hPa
Visibility 10 km or more
no clouds below 1500 m and no cumulonimbus

METAR: HSSS 160030Z 35010KT CAVOK 20/M07 Q1014 NOSIG

Time: 03:47 (00:47 UTC)

Forecast

The report was made 1 hour and 47 minutes ago, at 23:00 UTC
Forecast valid from 16 at 00 UTC to 17 at 06 UTC
Wind 12 kt from the North/Northwest with gusts up to 22 kt
Visibility 10 km or more
no clouds below 1500 m and no cumulonimbus
Probability 30% :
Temporary
from 16 at 00 UTC to 16 at 06 UTC
Visibility: 6000 m

TAF: HSSS 152300Z 1600/1706 34012G22KT CAVOK PROB30 TEMPO 1600/1606 6000

Weather observations and forecasts of more than 4000 airports (METAR and TAF reports).

The available stations are represented by yellow and red dots on the map.

Hover mouse over dot to see the name of the station.

Then click to see weather observations and forecasts.

To change the map : click on the green buttons with a black cross to zoom in, on the green button with a dash to zoom out, or on the green arrows for adjacent maps.


METAR-TAF: